Aérodrome :
LOGIN :

S'inscrire | Disclaimer

   EN    FR    IT 

 










Légende :    VFR   VFR Marginal   IFR   IFR Intensif   IFR Très Intensif
Visi : 
Plafond : 
>= 8 km
>= 3000ft
5 à 8 km
1000 à 3000 ft
1500m à 5 km
500 à 1000 ft
800 à 1500m
200 à 500 ft
< 800m
< 200 ft
Symboles :   Orages  Brouillard  Fortes neiges  Fortes précipitations  Vent > 20 kt
SIGMETs :   Divers  Orages  Givrage  Turbulence  Onde Orograph.  Cendres Volcan.






- Altitude de l'aérodrome : 1 ft


EGCK - Caernarfon

DERNIER METAR :
  • 190650Z AUTO 17006KT 9999 OVC017/// 09/08 Q0997

METARs EXPIRÉS :
  • 190620Z AUTO 17004KT 140V210 9999 BKN019/// OVC048/// 09/08 Q0997
  • 190550Z AUTO 22004KT 180V240 9999 FEW002/// BKN018/// 09/09 Q0996 RERA
  • 190520Z AUTO 19004KT 9999 FEW019/// BKN028/// 08/07 Q0996
  • 190450Z AUTO 17004KT 9999 FEW026/// 08/07 Q0996
  • 190420Z AUTO 19003KT 9999 BKN020/// 08/07 Q0996

TAF TAF EGCK
Valide du 19 à 06h jusqu'au 19 à 15h UTC


190508Z 1906/1915 17004KT 9999 SCT030
BECMG 1906/1908 30012KT
TEMPO 1906/1915 6000 SHRA BKN006
PROB30
TEMPO 1906/1915 3000 +SHRA BKN002 BKN020CB



MET'MAP, la Météo Aéronautique d'un coup d'oeil ! - Copyright ORBIFLY Décembre 2007 - Disclaimer

ORBIFLY MET'MAP TEAM :

Programmation & Développement : Alexandra Zaïnal
Conception & Développement : Baudouin d'Aumeries
Co-Programmation & Développement : Marc-Olivier Méhu
Soutien technique & logistique : Manuel Goepfert

Contact : metmap@orbifly.com




SOURCES & CREDITS :

   NOAA